Time;durP1;ratioP1;P1;durP2;ratioP2;P2;SDS_P1;SDS_P2;PMS_P1;PMS_P2;Temp;Humidity;BMP_temperature;BMP_pressure;BME280_temperature;BME280_humidity;BME280_pressure;Samples;Min_cycle;Max_cycle;Signal;HPM_P1;HPM_P2
2022/06/29 00:02:03;;;;;;;3.1;1.6;;;;;;;17.13;97.46387;937.1877;;;;
2022/06/29 00:04:31;;;;;;;2.8;1.7;;;;;;;17.16;97.8877;937.1942;;;;
2022/06/29 00:06:59;;;;;;;4;1.9;;;;;;;17.14;98.37988;937.1915;;;;
2022/06/29 00:09:25;;;;;;;2.8;1.6;;;;;;;17.15;98.60449;937.1317;;;;
2022/06/29 00:11:54;;;;;;;2.5;1.5;;;;;;;17.16;98.36328;937.1242;;;;
2022/06/29 00:14:23;;;;;;;2.7;1.8;;;;;;;17.26;97.63184;937.0407;;;;
2022/06/29 00:16:48;;;;;;;2.8;1.5;;;;;;;17.29;97.59082;936.876;;;;
2022/06/29 00:19:16;;;;;;;3;1.9;;;;;;;17.28;97.68164;936.9913;;;;
2022/06/29 00:21:41;;;;;;;3.4;1.9;;;;;;;17.21;97.89746;937.0631;;;;
2022/06/29 00:24:08;;;;;;;3.5;1.6;;;;;;;17.1;97.66699;937.1261;;;;
2022/06/29 00:26:33;;;;;;;3.4;1.8;;;;;;;17.13;97.87988;937.1201;;;;
2022/06/29 00:29:00;;;;;;;3.7;1.9;;;;;;;17.16;98.47852;937.084;;;;
2022/06/29 00:31:26;;;;;;;4.3;1.9;;;;;;;17.25;98.24414;937.0974;;;;
2022/06/29 00:33:51;;;;;;;3.3;1.9;;;;;;;17.04;99.1709;937.0363;;;;
2022/06/29 00:36:16;;;;;;;2.9;1.7;;;;;;;16.69;100;937.0552;;;;
2022/06/29 00:38:41;;;;;;;4.5;2.3;;;;;;;16.65;100;937.0298;;;;
2022/06/29 00:41:06;;;;;;;3.3;1.9;;;;;;;16.81;100;937.1064;;;;
2022/06/29 00:43:32;;;;;;;3.7;1.9;;;;;;;16.71;100;937.1675;;;;
2022/06/29 00:45:58;;;;;;;3.2;2.2;;;;;;;16.8;100;937.1275;;;;
2022/06/29 00:48:23;;;;;;;4.1;2;;;;;;;16.86;100;937.0809;;;;
2022/06/29 00:50:48;;;;;;;5.2;2.3;;;;;;;16.74;100;937.0665;;;;
2022/06/29 00:53:13;;;;;;;2.7;1.7;;;;;;;16.79;100;936.9918;;;;
2022/06/29 00:55:42;;;;;;;4.3;1.6;;;;;;;16.85;100;936.9001;;;;
2022/06/29 00:58:07;;;;;;;2.6;1.7;;;;;;;16.96;99.93848;936.9023;;;;
2022/06/29 01:00:34;;;;;;;6.1;1.8;;;;;;;16.89;100;936.8416;;;;
2022/06/29 01:02:59;;;;;;;4.3;1.8;;;;;;;16.93;100;936.8192;;;;
2022/06/29 01:05:26;;;;;;;4.1;1.6;;;;;;;17.04;99.94531;936.7475;;;;
2022/06/29 01:07:51;;;;;;;3.2;2;;;;;;;17.02;99.66504;936.6722;;;;
2022/06/29 01:10:21;;;;;;;2.2;1.6;;;;;;;17.03;99.45703;936.5779;;;;
2022/06/29 01:12:46;;;;;;;5.4;1.9;;;;;;;17.03;99.50293;936.5514;;;;
2022/06/29 01:15:15;;;;;;;3.5;1.6;;;;;;;16.99;99.32129;936.5469;;;;
2022/06/29 01:17:40;;;;;;;2.5;1.9;;;;;;;16.91;99.0127;936.4785;;;;
2022/06/29 01:20:09;;;;;;;1.9;1.7;;;;;;;16.96;98.82617;936.5178;;;;
2022/06/29 01:22:34;;;;;;;3;1.7;;;;;;;17;98.60449;936.5394;;;;
2022/06/29 01:24:59;;;;;;;2.9;1.8;;;;;;;17.05;98.44336;936.5397;;;;
2022/06/29 01:27:24;;;;;;;3.7;1.9;;;;;;;17.09;98.74121;936.4779;;;;
2022/06/29 01:29:50;;;;;;;2.3;1.9;;;;;;;17.12;98.88574;936.5176;;;;
2022/06/29 01:32:15;;;;;;;2.1;1.7;;;;;;;17.22;98.79199;936.4353;;;;
2022/06/29 01:34:41;;;;;;;1.8;1.6;;;;;;;17.24;98.91211;936.1865;;;;
2022/06/29 01:37:06;;;;;;;3.2;1.7;;;;;;;17.24;99.44824;936.1075;;;;
2022/06/29 01:39:32;;;;;;;3.9;1.9;;;;;;;17.23;99.15625;936.1995;;;;
2022/06/29 01:42:00;;;;;;;4.4;1.9;;;;;;;17.24;98.625;936.2427;;;;
2022/06/29 01:44:25;;;;;;;2.5;1.8;;;;;;;17.26;97.56152;936.2119;;;;
2022/06/29 01:46:51;;;;;;;2.8;1.8;;;;;;;17.16;97.43555;936.0235;;;;
2022/06/29 01:49:17;;;;;;;2.2;1.7;;;;;;;17.16;98.07324;935.9905;;;;
2022/06/29 01:51:42;;;;;;;3.1;1.7;;;;;;;17.14;99.19336;936.0142;;;;
2022/06/29 01:54:07;;;;;;;2.5;1.8;;;;;;;16.96;100;936.0399;;;;
2022/06/29 01:56:34;;;;;;;5.4;2.3;;;;;;;17;100;936.1277;;;;
2022/06/29 01:58:59;;;;;;;2.9;1.8;;;;;;;17.07;100;936.1364;;;;
2022/06/29 02:01:24;;;;;;;3.2;1.8;;;;;;;17;100;936.1864;;;;
2022/06/29 02:03:51;;;;;;;3.3;1.8;;;;;;;17.11;100;936.1379;;;;
2022/06/29 02:06:16;;;;;;;2.8;1.7;;;;;;;16.94;100;936.1415;;;;
2022/06/29 02:08:41;;;;;;;3.3;2.1;;;;;;;16.9;100;936.1199;;;;
2022/06/29 02:11:07;;;;;;;4.4;1.9;;;;;;;16.73;100;936.0389;;;;
2022/06/29 02:13:32;;;;;;;1.9;1.6;;;;;;;16.7;100;936.0765;;;;
2022/06/29 02:16:01;;;;;;;3.4;1.8;;;;;;;16.74;100;936.0574;;;;
2022/06/29 02:18:26;;;;;;;4.4;1.9;;;;;;;16.82;100;936.0659;;;;
2022/06/29 02:20:52;;;;;;;3.8;1.7;;;;;;;16.89;100;936.0508;;;;
2022/06/29 02:23:17;;;;;;;2.1;1.7;;;;;;;16.91;100;936.0361;;;;
2022/06/29 02:25:44;;;;;;;2.3;1.7;;;;;;;17.01;99.84863;936.0583;;;;
2022/06/29 02:28:09;;;;;;;4.8;1.9;;;;;;;16.79;99.41504;936.108;;;;
2022/06/29 02:35:25;;;;;;;1.9;1.7;;;;;;;16.84;99.62402;936.1072;;;;
2022/06/29 02:37:50;;;;;;;2.9;1.6;;;;;;;16.91;100;936.0714;;;;
2022/06/29 02:40:19;;;;;;;2.9;1.6;;;;;;;16.92;99.11914;936.0712;;;;
2022/06/29 02:42:48;;;;;;;2.6;1.7;;;;;;;17.01;99.06055;936.1209;;;;
2022/06/29 02:45:13;;;;;;;4;2.4;;;;;;;16.91;99.83594;936.1318;;;;
2022/06/29 02:47:40;;;;;;;3.7;1.8;;;;;;;16.98;99.75977;936.1167;;;;
2022/06/29 02:50:05;;;;;;;3.3;1.9;;;;;;;16.89;100;936.1057;;;;
2022/06/29 02:52:32;;;;;;;3.1;1.8;;;;;;;16.9;99.92676;936.0845;;;;
2022/06/29 02:54:57;;;;;;;2.3;1.6;;;;;;;17.03;99.23633;936.0736;;;;
2022/06/29 02:57:24;;;;;;;3.6;1.7;;;;;;;17.09;98.72754;936.0861;;;;
2022/06/29 02:59:47;;;;;;;3;1.7;;;;;;;17.15;98.47656;936.089;;;;
2022/06/29 03:02:13;;;;;;;6.4;2;;;;;;;17.11;98.93066;936.0181;;;;
2022/06/29 03:04:38;;;;;;;3.2;1.8;;;;;;;17.11;98.89551;936.1243;;;;
2022/06/29 03:07:05;;;;;;;2.4;1.7;;;;;;;17.09;99.05566;936.1528;;;;
2022/06/29 03:09:31;;;;;;;6.7;2.4;;;;;;;17.08;98.65723;936.17;;;;
2022/06/29 03:11:56;;;;;;;2.3;1.9;;;;;;;17.08;97.15137;936.1594;;;;
2022/06/29 03:14:21;;;;;;;4.5;1.9;;;;;;;17.06;96.55371;936.0972;;;;
2022/06/29 03:16:48;;;;;;;2.1;1.7;;;;;;;17;96.69238;936.1599;;;;
2022/06/29 03:19:13;;;;;;;2.4;1.6;;;;;;;16.97;97.24316;936.1613;;;;
2022/06/29 03:21:41;;;;;;;5.3;1.7;;;;;;;16.98;96.6543;936.2094;;;;
2022/06/29 03:24:06;;;;;;;3;2;;;;;;;16.93;96.95508;936.2392;;;;
2022/06/29 03:26:33;;;;;;;3.5;2.2;;;;;;;17.01;97.1582;936.3521;;;;
2022/06/29 03:28:58;;;;;;;4.8;2.6;;;;;;;17.09;97.74414;936.358;;;;
2022/06/29 03:31:24;;;;;;;2.2;2;;;;;;;17.02;98.73828;936.4518;;;;
2022/06/29 03:33:49;;;;;;;2.5;1.7;;;;;;;16.94;99.16992;936.4595;;;;
2022/06/29 03:36:15;;;;;;;3.4;1.8;;;;;;;16.91;99.71973;936.4672;;;;
2022/06/29 03:38:40;;;;;;;2.6;1.7;;;;;;;16.94;99.98047;936.527;;;;
2022/06/29 03:41:07;;;;;;;3.8;2;;;;;;;16.9;100;936.4657;;;;
2022/06/29 03:43:32;;;;;;;4.6;2.3;;;;;;;16.91;100;936.3964;;;;
2022/06/29 03:45:58;;;;;;;3.1;2;;;;;;;16.98;100;936.4185;;;;
2022/06/29 03:48:23;;;;;;;2.7;2.1;;;;;;;16.98;99.97949;936.4449;;;;
2022/06/29 03:50:49;;;;;;;3.8;2;;;;;;;17.04;99.27539;936.3943;;;;
2022/06/29 03:53:14;;;;;;;3.7;2.1;;;;;;;17.07;99.03809;936.4009;;;;
2022/06/29 03:55:40;;;;;;;3.5;1.9;;;;;;;17.16;98.61621;936.446;;;;
2022/06/29 03:58:05;;;;;;;4.1;1.9;;;;;;;17.21;98.44238;936.4731;;;;
2022/06/29 04:02:32;;;;;;;3.3;1.9;;;;;;;17.28;98.40039;936.4512;;;;
2022/06/29 04:05:00;;;;;;;1.8;1.7;;;;;;;17.29;97.7168;936.4375;;;;
2022/06/29 04:07:25;;;;;;;2.6;1.7;;;;;;;17.31;97.69922;936.4788;;;;
2022/06/29 04:09:50;;;;;;;4.1;2;;;;;;;17.28;97.24121;936.4111;;;;
2022/06/29 04:12:16;;;;;;;4;1.8;;;;;;;17.28;96.75391;936.3868;;;;
2022/06/29 04:14:41;;;;;;;5.8;2.3;;;;;;;17.25;97.15234;936.3884;;;;
2022/06/29 04:17:07;;;;;;;3.7;1.8;;;;;;;17.29;97.24121;936.3731;;;;
2022/06/29 04:19:32;;;;;;;2.8;2.3;;;;;;;17.26;96.9707;936.355;;;;
2022/06/29 04:21:58;;;;;;;3.3;1.8;;;;;;;17.3;97.31445;936.2545;;;;
2022/06/29 04:24:23;;;;;;;5.6;1.8;;;;;;;17.39;97.75195;936.2801;;;;
2022/06/29 04:26:49;;;;;;;3.9;2.3;;;;;;;17.44;97.01074;936.3486;;;;
2022/06/29 04:29:14;;;;;;;2.1;1.9;;;;;;;17.57;96.81836;936.3693;;;;
2022/06/29 04:31:41;;;;;;;4.6;2.1;;;;;;;17.67;95.20313;936.3192;;;;
2022/06/29 04:34:06;;;;;;;3.8;2;;;;;;;17.75;95.37402;936.3049;;;;
2022/06/29 04:36:31;;;;;;;3.5;2.2;;;;;;;17.86;94.52441;936.3691;;;;
2022/06/29 04:38:56;;;;;;;3.7;2.2;;;;;;;17.93;95.05078;936.3828;;;;
2022/06/29 04:41:23;;;;;;;3.5;2.1;;;;;;;17.99;94.34277;936.4105;;;;
2022/06/29 04:43:48;;;;;;;3.8;1.8;;;;;;;18.12;93.40723;936.4264;;;;
2022/06/29 04:46:23;;;;;;;2;1.8;;;;;;;18.27;92.39355;936.4345;;;;
2022/06/29 04:48:41;;;;;;;2.2;1.5;;;;;;;18.37;91.49609;936.5555;;;;
2022/06/29 04:51:06;;;;;;;2.5;1.7;;;;;;;18.33;90.55762;936.5193;;;;
2022/06/29 04:53:31;;;;;;;2.3;1.6;;;;;;;18.37;91.18262;936.5008;;;;
2022/06/29 04:55:57;;;;;;;3;2;;;;;;;18.43;90.51953;936.4753;;;;
2022/06/29 04:58:22;;;;;;;3.4;1.8;;;;;;;18.55;90.34766;936.4911;;;;
2022/06/29 05:00:47;;;;;;;2.6;2.1;;;;;;;18.61;89.52148;936.4598;;;;
2022/06/29 05:03:14;;;;;;;2.5;1.7;;;;;;;18.7;89.87891;936.5211;;;;
2022/06/29 05:05:39;;;;;;;2.2;1.8;;;;;;;18.77;89.34473;936.5436;;;;
2022/06/29 05:08:08;;;;;;;2.5;1.5;;;;;;;18.73;89.40723;936.543;;;;
2022/06/29 05:10:34;;;;;;;2.9;1.9;;;;;;;18.64;89.99219;936.5492;;;;
2022/06/29 05:12:59;;;;;;;4.2;2;;;;;;;18.72;90.48633;936.5715;;;;
2022/06/29 05:15:24;;;;;;;2;1.8;;;;;;;18.71;91.37988;936.6079;;;;
2022/06/29 05:17:51;;;;;;;3.3;1.8;;;;;;;18.74;90.00293;936.5539;;;;
2022/06/29 05:20:17;;;;;;;4;1.8;;;;;;;18.67;89.64063;936.5693;;;;
2022/06/29 05:22:43;;;;;;;3.1;1.5;;;;;;;18.75;89.61914;936.6047;;;;
2022/06/29 05:25:08;;;;;;;3.4;1.6;;;;;;;18.87;89.48145;936.6083;;;;
2022/06/29 05:27:33;;;;;;;2.6;1.6;;;;;;;18.92;90.02832;936.6118;;;;
2022/06/29 05:29:58;;;;;;;1.7;1.5;;;;;;;18.87;90.7041;936.5938;;;;
2022/06/29 05:32:27;;;;;;;3.8;1.7;;;;;;;18.85;91.33984;936.5427;;;;
2022/06/29 05:34:53;;;;;;;2.5;1.6;;;;;;;19.09;91.00488;936.5014;;;;
2022/06/29 05:37:18;;;;;;;3;1.6;;;;;;;19.34;89.00781;936.5837;;;;
2022/06/29 05:39:44;;;;;;;2.4;1.4;;;;;;;19.44;88.50391;936.5538;;;;
2022/06/29 05:42:09;;;;;;;2;1.5;;;;;;;19.81;86.58203;936.51;;;;
2022/06/29 05:44:34;;;;;;;4;1.7;;;;;;;20.04;87.29102;936.4992;;;;
2022/06/29 05:47:00;;;;;;;3;1.5;;;;;;;20.63;82.90039;936.5069;;;;
2022/06/29 05:49:25;;;;;;;4.2;1.7;;;;;;;20.76;82.52637;936.5489;;;;
2022/06/29 05:51:51;;;;;;;2.4;1.4;;;;;;;20.83;80.02539;936.5681;;;;
2022/06/29 05:54:17;;;;;;;2.3;1.5;;;;;;;20.88;79.46191;936.6367;;;;
2022/06/29 05:56:43;;;;;;;3.2;1.7;;;;;;;20.4;82.45898;936.7092;;;;
2022/06/29 05:59:08;;;;;;;4;1.7;;;;;;;20.43;81.56543;936.7218;;;;
2022/06/29 06:01:35;;;;;;;2.3;1.7;;;;;;;20.7;79.14746;936.8342;;;;
2022/06/29 06:04:00;;;;;;;2.5;1.5;;;;;;;20.78;80.16699;936.8876;;;;
2022/06/29 06:06:27;;;;;;;3.8;2;;;;;;;20.71;80.02734;936.8502;;;;
2022/06/29 06:08:52;;;;;;;2.8;1.6;;;;;;;20.75;80.30469;936.8162;;;;
2022/06/29 06:11:18;;;;;;;2.6;1.5;;;;;;;20.49;81.4248;936.775;;;;
2022/06/29 06:13:43;;;;;;;3.3;1.9;;;;;;;20.78;81.12598;936.8585;;;;
2022/06/29 06:16:10;;;;;;;3.8;1.7;;;;;;;21.05;77.54004;936.9504;;;;
2022/06/29 06:18:35;;;;;;;3.2;1.8;;;;;;;20.98;78.41602;937.035;;;;
2022/06/29 06:21:02;;;;;;;3.8;1.6;;;;;;;21.49;76.97168;936.9608;;;;
2022/06/29 06:23:27;;;;;;;5.6;1.8;;;;;;;21.5;76.24805;937.0311;;;;
2022/06/29 06:25:55;;;;;;;2.1;1.7;;;;;;;21.14;80.66602;937.0634;;;;
2022/06/29 06:28:20;;;;;;;4.1;1.8;;;;;;;21.11;79.22363;937.0625;;;;
2022/06/29 06:30:46;;;;;;;4.3;1.7;;;;;;;21.05;81.64355;936.9749;;;;
2022/06/29 06:33:11;;;;;;;2.8;1.8;;;;;;;21.4;80.74805;936.9514;;;;
2022/06/29 06:35:36;;;;;;;2.3;1.8;;;;;;;22.16;75.29395;936.89;;;;
2022/06/29 06:38:01;;;;;;;1.8;1.5;;;;;;;22.47;74.46777;936.8462;;;;
2022/06/29 06:42:52;;;;;;;2.7;1.5;;;;;;;22.98;70.27637;936.827;;;;
2022/06/29 06:45:18;;;;;;;2.6;1.4;;;;;;;22.44;70.83789;936.866;;;;
2022/06/29 06:47:43;;;;;;;2.1;1.3;;;;;;;21.6;72.01367;936.8354;;;;
2022/06/29 06:50:08;;;;;;;2.8;1.6;;;;;;;21.41;73.98438;936.8409;;;;
2022/06/29 06:52:36;;;;;;;2.9;1.7;;;;;;;21.56;72.83984;936.8514;;;;
2022/06/29 06:55:01;;;;;;;2.4;1.5;;;;;;;21.71;72.18555;936.8373;;;;
2022/06/29 06:57:26;;;;;;;4;1.7;;;;;;;22.05;71.94629;936.8567;;;;
2022/06/29 06:59:53;;;;;;;3.6;1.3;;;;;;;22.37;71.28418;936.8368;;;;
2022/06/29 07:02:19;;;;;;;4;1.5;;;;;;;23.36;68.31445;936.8833;;;;
2022/06/29 07:04:46;;;;;;;2.5;1.5;;;;;;;23.53;68.90527;936.7829;;;;
2022/06/29 07:07:11;;;;;;;2.5;1.3;;;;;;;23.64;67.66504;936.7957;;;;
2022/06/29 07:09:36;;;;;;;3.1;1.7;;;;;;;23.81;65.79492;936.8208;;;;
2022/06/29 07:12:01;;;;;;;3.7;1.5;;;;;;;24.03;65.63867;936.7944;;;;
2022/06/29 07:14:26;;;;;;;5.4;1.5;;;;;;;23.5;67.16113;936.7111;;;;
2022/06/29 07:16:52;;;;;;;2.5;1.6;;;;;;;23.35;65.44531;936.7593;;;;
2022/06/29 07:19:17;;;;;;;4.3;1.9;;;;;;;22.98;67.1416;936.7739;;;;
2022/06/29 07:21:42;;;;;;;5.2;1.6;;;;;;;23.52;66.46973;936.715;;;;
2022/06/29 07:24:07;;;;;;;4;1.5;;;;;;;24.64;61.88574;936.6212;;;;
2022/06/29 07:26:32;;;;;;;6.4;1.6;;;;;;;24.88;60.49023;936.6384;;;;
2022/06/29 07:28:58;;;;;;;4.1;1.7;;;;;;;25.16;61.47363;936.6755;;;;
2022/06/29 07:31:25;;;;;;;4;1.5;;;;;;;26.03;57.65332;936.698;;;;
2022/06/29 07:33:50;;;;;;;3.1;1.6;;;;;;;26.96;55.20313;936.6311;;;;
2022/06/29 07:36:16;;;;;;;3.2;1.6;;;;;;;27.56;52.99805;936.6625;;;;
2022/06/29 07:38:41;;;;;;;2;1.5;;;;;;;26.57;53.69727;936.6111;;;;
2022/06/29 07:41:07;;;;;;;1.8;1.3;;;;;;;27.43;53.07813;936.5814;;;;
2022/06/29 07:43:32;;;;;;;4.4;1.5;;;;;;;29.19;48.62891;936.54;;;;
2022/06/29 07:45:59;;;;;;;4.9;1.9;;;;;;;29.49;48.73242;936.5853;;;;
2022/06/29 07:48:25;;;;;;;4;1.5;;;;;;;30.89;45.78711;936.6042;;;;
2022/06/29 07:50:50;;;;;;;3.3;1.6;;;;;;;31.01;44.47266;936.5539;;;;
2022/06/29 07:53:17;;;;;;;2.3;1.4;;;;;;;32.56;41.02539;936.4914;;;;
2022/06/29 07:55:44;;;;;;;1.8;1.7;;;;;;;32.12;41.88379;936.4745;;;;
2022/06/29 07:58:10;;;;;;;2.8;1.3;;;;;;;32.78;41.70508;936.4683;;;;
2022/06/29 08:00:36;;;;;;;4.3;1.6;;;;;;;31.77;40.18652;936.4056;;;;
2022/06/29 08:03:03;;;;;;;3;1.5;;;;;;;31.86;43.5498;936.4138;;;;
2022/06/29 08:05:28;;;;;;;3.5;1.4;;;;;;;31.62;41.03613;936.3843;;;;
2022/06/29 08:07:54;;;;;;;2.4;1.5;;;;;;;31.1;45.48633;936.3711;;;;
2022/06/29 08:10:19;;;;;;;4;1.6;;;;;;;30.48;44.92188;936.3594;;;;
2022/06/29 08:12:46;;;;;;;2.7;1.6;;;;;;;29.67;46.0332;936.2999;;;;
2022/06/29 08:15:11;;;;;;;4.9;1.8;;;;;;;30.26;44.51855;936.3265;;;;
2022/06/29 08:17:37;;;;;;;4.3;1.8;;;;;;;30.15;47.28809;936.3558;;;;
2022/06/29 08:20:03;;;;;;;4.4;1.6;;;;;;;31.42;44.96777;936.2699;;;;
2022/06/29 08:22:30;;;;;;;2.6;1.5;;;;;;;31.78;42.70313;936.1993;;;;
2022/06/29 08:24:55;;;;;;;1.9;1.4;;;;;;;31.27;44.65332;936.1875;;;;
2022/06/29 08:27:21;;;;;;;3.9;1.6;;;;;;;31.58;42.46875;936.1453;;;;
2022/06/29 08:29:46;;;;;;;3.1;1.8;;;;;;;32.63;40.79004;936.0946;;;;
2022/06/29 08:32:14;;;;;;;3.2;1.4;;;;;;;31.13;45.39453;936.1006;;;;
2022/06/29 08:34:43;;;;;;;2.2;1.6;;;;;;;32.89;39.44629;936.0681;;;;
2022/06/29 08:37:04;;;;;;;2.2;1.3;;;;;;;32.97;39.5127;936.0659;;;;
2022/06/29 08:39:29;;;;;;;2.2;1.4;;;;;;;33.13;41.04004;936.0268;;;;
2022/06/29 08:41:54;;;;;;;4;1.9;;;;;;;31.33;43.17578;936.0338;;;;
2022/06/29 08:44:21;;;;;;;2.1;1.4;;;;;;;31.71;42.13379;936.0179;;;;
2022/06/29 08:46:45;;;;;;;2.8;1.5;;;;;;;32.04;42.0332;936.0269;;;;
2022/06/29 08:49:12;;;;;;;2.8;1.4;;;;;;;31.64;42.0918;936.024;;;;
2022/06/29 08:51:37;;;;;;;2.9;1.9;;;;;;;31.47;42.48242;935.9803;;;;
2022/06/29 08:54:04;;;;;;;2.6;1.6;;;;;;;31.61;43.33398;935.9497;;;;
2022/06/29 08:56:28;;;;;;;3.1;1.7;;;;;;;30.7;45.76855;935.9328;;;;
2022/06/29 08:58:55;;;;;;;1.7;1.5;;;;;;;31.4;46.29395;935.9066;;;;
2022/06/29 09:01:20;;;;;;;2.5;1.6;;;;;;;31.05;43.5791;935.8987;;;;
2022/06/29 09:03:46;;;;;;;2.7;1.6;;;;;;;29.79;45.17578;935.894;;;;
2022/06/29 09:06:11;;;;;;;3.3;2;;;;;;;29;51.25098;935.9302;;;;
2022/06/29 09:08:37;;;;;;;4.5;1.7;;;;;;;29.82;47.8623;935.9587;;;;
2022/06/29 09:11:02;;;;;;;2.7;1.9;;;;;;;29.56;47.87012;935.9378;;;;
2022/06/29 09:13:27;;;;;;;3.1;1.4;;;;;;;29.54;49.20313;935.9562;;;;
2022/06/29 09:15:54;;;;;;;5.2;1.5;;;;;;;29.47;50.61328;936.0146;;;;
2022/06/29 09:18:19;;;;;;;1.7;1.5;;;;;;;29.87;48.54688;936.027;;;;
2022/06/29 09:20:45;;;;;;;4.1;1.8;;;;;;;29.97;52.32715;936.1121;;;;
2022/06/29 09:23:10;;;;;;;2.6;1.7;;;;;;;30.85;48.77344;936.0667;;;;
2022/06/29 09:25:39;;;;;;;3.5;2;;;;;;;30.72;49.24707;936.1125;;;;
2022/06/29 09:28:01;;;;;;;3;1.5;;;;;;;31.17;46.04297;936.128;;;;
2022/06/29 09:30:29;;;;;;;2.1;1.5;;;;;;;30.78;49.3623;936.0911;;;;
2022/06/29 09:32:51;;;;;;;2.7;1.8;;;;;;;30.75;47.78125;936.0294;;;;
2022/06/29 09:35:19;;;;;;;4.1;1.7;;;;;;;28.86;52.90137;936.0583;;;;
2022/06/29 09:37:43;;;;;;;2.2;1.9;;;;;;;29.56;50.34961;936.0731;;;;
2022/06/29 09:40:10;;;;;;;1.9;1.5;;;;;;;29.76;49.91895;936.0864;;;;
2022/06/29 09:42:37;;;;;;;1.7;1.6;;;;;;;29.47;53.35449;936.1262;;;;
2022/06/29 09:45:02;;;;;;;3.5;1.8;;;;;;;29.24;53.56641;936.1328;;;;
2022/06/29 09:47:31;;;;;;;2.9;1.7;;;;;;;29.37;52.65137;936.0796;;;;
2022/06/29 09:49:59;;;;;;;2.8;1.9;;;;;;;28.73;52.37402;936.0833;;;;
2022/06/29 09:52:21;;;;;;;2.2;1.8;;;;;;;28.23;54.15918;936.1406;;;;
2022/06/29 09:54:47;;;;;;;3.3;2;;;;;;;28.73;52.99316;936.1036;;;;
2022/06/29 09:57:12;;;;;;;3;1.8;;;;;;;27.6;59.19824;936.0564;;;;
2022/06/29 10:04:30;;;;;;;5.6;2.1;;;;;;;25.9;66.02148;936.0941;;;;
2022/06/29 10:06:53;;;;;;;2.7;2;;;;;;;26.17;62.89063;936.0765;;;;
2022/06/29 10:09:19;;;;;;;2.8;2;;;;;;;27.02;60.93457;936.017;;;;
2022/06/29 10:14:10;;;;;;;3.1;2.4;;;;;;;26.17;61.3291;936.0275;;;;
2022/06/29 10:16:35;;;;;;;3.5;2.2;;;;;;;26.08;59.81445;936.0586;;;;
2022/06/29 10:19:00;;;;;;;2.3;1.9;;;;;;;26.25;58.28613;936.0637;;;;
2022/06/29 10:21:25;;;;;;;3;2;;;;;;;26.41;59.97559;935.9966;;;;
2022/06/29 10:23:51;;;;;;;3.1;2.1;;;;;;;25.57;61.08105;936.0276;;;;
2022/06/29 10:26:16;;;;;;;2.8;2;;;;;;;25.75;60.39648;936.0728;;;;
2022/06/29 10:28:41;;;;;;;3.1;2.2;;;;;;;25.39;60.74902;936.0056;;;;
2022/06/29 10:31:06;;;;;;;5;2.3;;;;;;;24.62;64.77148;936.0386;;;;
2022/06/29 10:33:32;;;;;;;3.1;2.2;;;;;;;24.37;64.68848;936.0281;;;;
2022/06/29 10:35:57;;;;;;;3.8;2.2;;;;;;;24.36;65.28711;935.9858;;;;
2022/06/29 10:38:22;;;;;;;2.3;2;;;;;;;24.52;64.68652;936.0433;;;;
2022/06/29 10:40:47;;;;;;;3.6;2.4;;;;;;;24.49;64.01074;935.9805;;;;
2022/06/29 10:43:13;;;;;;;3.5;2.1;;;;;;;24.49;64.7041;935.9775;;;;
2022/06/29 10:45:39;;;;;;;3.4;2.4;;;;;;;24.82;63.36133;935.9745;;;;
2022/06/29 10:48:06;;;;;;;3.7;2.1;;;;;;;25.05;62.75586;935.9822;;;;
2022/06/29 10:50:28;;;;;;;2.3;2.1;;;;;;;25.01;63.11719;935.9331;;;;
2022/06/29 10:52:53;;;;;;;2.9;2.1;;;;;;;25.16;61.31934;935.8745;;;;
2022/06/29 10:55:21;;;;;;;3.6;3;;;;;;;24.6;64.7793;935.8451;;;;
2022/06/29 10:57:46;;;;;;;2.6;2;;;;;;;24.57;64.86914;935.8889;;;;
2022/06/29 11:00:11;;;;;;;2.8;2.3;;;;;;;24.19;64.89648;935.776;;;;
2022/06/29 11:02:39;;;;;;;3.1;2.6;;;;;;;23.83;68.375;935.7825;;;;
2022/06/29 11:05:06;;;;;;;4.2;2.4;;;;;;;24.45;65.83105;935.7961;;;;
2022/06/29 11:12:28;;;;;;;2.5;2;;;;;;;25.95;61.79492;935.785;;;;
2022/06/29 11:17:41;;;;;;;2.3;2.1;;;;;;;26.79;58.32129;935.6995;;;;
2022/06/29 11:19:44;;;;;;;3.4;2.2;;;;;;;26.59;56.35352;935.6306;;;;
2022/06/29 11:22:09;;;;;;;4.5;2.6;;;;;;;25.62;61.13574;935.7581;;;;
2022/06/29 11:24:36;;;;;;;4;2.2;;;;;;;25.28;61.76172;935.7267;;;;
2022/06/29 11:27:01;;;;;;;5.1;2.2;;;;;;;25.41;62.14551;935.698;;;;
2022/06/29 11:29:30;;;;;;;3.8;2.1;;;;;;;25.2;61.51465;935.6902;;;;
2022/06/29 11:31:51;;;;;;;3.4;2.2;;;;;;;25.42;61.61523;935.7262;;;;
2022/06/29 11:34:19;;;;;;;2.7;2;;;;;;;25.47;60.34668;935.7213;;;;
2022/06/29 11:36:43;;;;;;;3.5;2.1;;;;;;;25.69;60.34082;935.721;;;;
2022/06/29 11:39:09;;;;;;;3.6;2.3;;;;;;;25.74;59.4375;935.7288;;;;
2022/06/29 11:43:05;;;;;;;4.1;2.8;;;;;;;25.44;61.35742;935.7498;;;;
2022/06/29 11:43:59;;;;;;;3.6;2.7;;;;;;;25.38;61.14941;935.7136;;;;
2022/06/29 11:46:27;;;;;;;2.8;2.2;;;;;;;25.17;63.34082;935.7697;;;;
2022/06/29 11:49:36;;;;;;;3.3;2.5;;;;;;;25.13;63.13281;935.7545;;;;
2022/06/29 11:51:17;;;;;;;2.8;2.5;;;;;;;25.18;62.38574;935.7405;;;;
2022/06/29 11:53:44;;;;;;;3.1;2.7;;;;;;;25.12;62.4707;935.7944;;;;
2022/06/29 11:56:11;;;;;;;3.8;2.3;;;;;;;25.08;62.38379;935.8132;;;;
2022/06/29 11:58:34;;;;;;;3.6;2.3;;;;;;;24.96;62.27148;935.8923;;;;
2022/06/29 12:00:59;;;;;;;3.1;2.4;;;;;;;24.75;62.77344;935.83;;;;
2022/06/29 12:03:24;;;;;;;3.5;2.6;;;;;;;24.59;64.16602;935.8372;;;;
2022/06/29 12:05:49;;;;;;;5.5;2.6;;;;;;;24.73;64.35059;935.7698;;;;
2022/06/29 12:08:15;;;;;;;4.5;2.5;;;;;;;24.67;65.84082;935.8068;;;;
2022/06/29 12:10:40;;;;;;;4.3;2.5;;;;;;;24.72;64.20801;935.8489;;;;
2022/06/29 12:13:06;;;;;;;4.2;2.4;;;;;;;24.78;63.95801;935.8315;;;;
2022/06/29 12:15:34;;;;;;;3.8;2.2;;;;;;;24.86;63.63867;935.8008;;;;
2022/06/29 12:17:57;;;;;;;2.3;2.1;;;;;;;24.94;62.43555;935.7546;;;;
2022/06/29 12:20:22;;;;;;;3.9;2.8;;;;;;;25.14;63.12402;935.7385;;;;
2022/06/29 12:22:47;;;;;;;3.8;2.4;;;;;;;25.4;62.30957;935.7468;;;;
2022/06/29 12:25:16;;;;;;;4.1;2.6;;;;;;;25.61;62.49316;935.7424;;;;
2022/06/29 12:27:45;;;;;;;3.6;2.1;;;;;;;25.85;60.93164;935.7231;;;;
2022/06/29 12:30:10;;;;;;;4.3;2.3;;;;;;;25.83;61.86133;935.7519;;;;
2022/06/29 12:32:37;;;;;;;4.3;2.1;;;;;;;25.9;60.90039;935.7623;;;;
2022/06/29 12:35:02;;;;;;;3.6;2.3;;;;;;;26.11;61.16504;935.7366;;;;
2022/06/29 12:37:43;;;;;;;3.8;2.1;;;;;;;26.35;59.68555;935.7701;;;;
2022/06/29 12:40:06;;;;;;;3.8;2.3;;;;;;;26.44;58.22852;935.795;;;;
2022/06/29 12:42:31;;;;;;;5;2;;;;;;;26.34;58.32324;935.7551;;;;
2022/06/29 12:44:56;;;;;;;3.3;2.1;;;;;;;26.45;58.79883;935.7405;;;;
2022/06/29 12:47:22;;;;;;;4.1;2.5;;;;;;;26.5;57.88086;935.7296;;;;
2022/06/29 12:49:47;;;;;;;2.5;2.2;;;;;;;26.58;57.45313;935.7366;;;;
2022/06/29 12:52:16;;;;;;;3.1;2;;;;;;;26.62;57.66016;935.7053;;;;
2022/06/29 12:54:39;;;;;;;3.3;2.4;;;;;;;26.73;56.67969;935.6864;;;;
2022/06/29 12:57:06;;;;;;;4.4;2.3;;;;;;;26.73;57.43652;935.757;;;;
2022/06/29 12:59:31;;;;;;;3.6;2.1;;;;;;;26.8;57.8125;935.7366;;;;
2022/06/29 13:01:58;;;;;;;2.8;2;;;;;;;26.67;58.70898;935.7569;;;;
2022/06/29 13:04:23;;;;;;;3.9;2.5;;;;;;;26.48;58.22168;935.7395;;;;
2022/06/29 13:06:49;;;;;;;3.9;2.8;;;;;;;26.17;59.57813;935.7108;;;;
2022/06/29 13:09:14;;;;;;;9.3;3.9;;;;;;;26.07;59.30469;935.7841;;;;
2022/06/29 13:11:40;;;;;;;11.9;5.8;;;;;;;25.9;60.13379;935.8078;;;;
2022/06/29 13:14:05;;;;;;;10.1;3.7;;;;;;;25.73;59.87305;935.7818;;;;
2022/06/29 13:16:34;;;;;;;2.8;2.2;;;;;;;25.66;60.50391;935.7955;;;;
2022/06/29 13:18:59;;;;;;;5.7;2.4;;;;;;;25.42;60.9541;935.7881;;;;
2022/06/29 13:21:26;;;;;;;2.8;2.5;;;;;;;25.47;60.99609;935.8517;;;;
2022/06/29 13:23:52;;;;;;;3.1;2.3;;;;;;;25.34;61.56934;935.7767;;;;
2022/06/29 13:26:24;;;;;;;4.5;2.7;;;;;;;25.22;60.69141;935.7703;;;;
2022/06/29 13:28:44;;;;;;;4.6;2.6;;;;;;;25.17;60.56738;935.7402;;;;
2022/06/29 13:31:09;;;;;;;4.1;2.2;;;;;;;25.19;61.64258;935.754;;;;
2022/06/29 13:33:36;;;;;;;4;2.3;;;;;;;25.3;60.96094;935.8231;;;;
2022/06/29 13:36:01;;;;;;;3.9;2.2;;;;;;;25.11;60.28613;935.807;;;;
2022/06/29 13:38:27;;;;;;;4.3;2.5;;;;;;;25.12;61.12598;935.8335;;;;
2022/06/29 13:40:52;;;;;;;3;2.4;;;;;;;24.97;64.19727;935.8711;;;;
2022/06/29 13:43:17;;;;;;;3.8;2.3;;;;;;;24.99;62.34863;935.8459;;;;
2022/06/29 13:45:44;;;;;;;5.7;2.5;;;;;;;24.89;62.14453;935.8713;;;;
2022/06/29 13:48:11;;;;;;;4.1;2.5;;;;;;;24.71;62.08398;935.8783;;;;
2022/06/29 13:50:36;;;;;;;3.7;2.2;;;;;;;24.77;62.87109;935.8558;;;;
2022/06/29 13:53:02;;;;;;;4.5;2.6;;;;;;;24.65;64.72852;935.8592;;;;
2022/06/29 13:55:28;;;;;;;3.7;2.5;;;;;;;24.6;64.82617;935.876;;;;
2022/06/29 13:57:55;;;;;;;4.8;2.8;;;;;;;24.44;66.47754;935.8358;;;;
2022/06/29 14:00:21;;;;;;;3.6;2.8;;;;;;;24.3;66.70313;935.8536;;;;
2022/06/29 14:02:48;;;;;;;4.8;2.5;;;;;;;24.42;64.72949;935.8485;;;;
2022/06/29 14:05:17;;;;;;;3.2;2.3;;;;;;;24.42;65.17676;935.8201;;;;
2022/06/29 14:07:45;;;;;;;4.2;2.3;;;;;;;24.4;64.25684;935.873;;;;
2022/06/29 14:10:10;;;;;;;4.6;2.6;;;;;;;24.35;66.88867;935.8487;;;;
2022/06/29 14:12:40;;;;;;;3.3;2.3;;;;;;;24.53;64.14648;935.8604;;;;
2022/06/29 14:15:05;;;;;;;4.8;2.5;;;;;;;24.63;63.20508;935.8406;;;;
2022/06/29 14:17:38;;;;;;;3.6;2.2;;;;;;;24.81;63.34961;935.8699;;;;
2022/06/29 14:20:08;;;;;;;3.2;2.7;;;;;;;24.85;64.23926;935.8909;;;;
2022/06/29 14:22:32;;;;;;;3.3;2.4;;;;;;;24.9;64.24609;935.9026;;;;
2022/06/29 14:24:58;;;;;;;5.7;2.8;;;;;;;25;65.28613;935.9011;;;;
2022/06/29 14:27:24;;;;;;;3.4;2.3;;;;;;;24.94;66.45801;935.8328;;;;
2022/06/29 14:29:48;;;;;;;2.8;2.2;;;;;;;24.87;65.32715;935.8589;;;;
2022/06/29 14:32:17;;;;;;;4.2;2.5;;;;;;;24.83;65.52051;935.8895;;;;
2022/06/29 14:34:41;;;;;;;5;2.6;;;;;;;24.91;63.66797;935.8998;;;;
2022/06/29 14:37:08;;;;;;;3.6;2.2;;;;;;;24.8;64.73828;935.8295;;;;
2022/06/29 14:39:34;;;;;;;5.2;2.3;;;;;;;24.78;64.44141;935.8452;;;;
2022/06/29 14:42:00;;;;;;;3.9;2.5;;;;;;;24.74;67.1709;935.885;;;;
2022/06/29 14:44:26;;;;;;;2.8;2.6;;;;;;;24.76;65.69922;935.8605;;;;
2022/06/29 14:46:51;;;;;;;3.7;2.6;;;;;;;24.75;64.91895;935.843;;;;